Time;durP1;ratioP1;P1;durP2;ratioP2;P2;SDS_P1;SDS_P2;PMS_P1;PMS_P2;Temp;Humidity;BMP_temperature;BMP_pressure;BME280_temperature;BME280_humidity;BME280_pressure;Samples;Min_cycle;Max_cycle;Signal;HPM_P1;HPM_P2
2021/12/13 00:01:36;;;;;;;19.35;9.77;;;;;;;0.53;64.58;99676.97;4346732;32;33198;-89
2021/12/13 00:04:09;;;;;;;18.67;9.85;;;;;;;0.61;64.33;99683.44;4333425;32;32895;-89
2021/12/13 00:06:45;;;;;;;16.20;9.55;;;;;;;0.96;63.42;99671.09;4356423;32;34158;-88
2021/12/13 00:09:16;;;;;;;18.48;9.20;;;;;;;0.40;64.69;99676.22;4348679;32;35042;-89
2021/12/13 00:11:53;;;;;;;15.88;9.18;;;;;;;0.87;63.16;99670.56;4333633;33;33617;-90
2021/12/13 00:14:24;;;;;;;16.65;8.88;;;;;;;0.70;63.88;99666.09;4335599;32;33597;-90
2021/12/13 00:17:03;;;;;;;16.48;8.77;;;;;;;0.81;63.82;99677.84;4345933;32;34673;-89
2021/12/13 00:19:50;;;;;;;18.12;10.45;;;;;;;0.46;64.79;99668.09;4345315;32;34121;-89
2021/12/13 00:22:21;;;;;;;16.30;9.57;;;;;;;0.58;64.47;99671.38;4346262;32;32843;-89
2021/12/13 00:24:50;;;;;;;16.80;8.80;;;;;;;0.46;64.53;99671.50;4347735;32;33975;-89
2021/12/13 00:27:26;;;;;;;17.87;9.25;;;;;;;0.43;64.87;99684.06;4361127;32;34127;-89
2021/12/13 00:29:54;;;;;;;15.25;8.85;;;;;;;0.53;64.50;99674.41;4348175;32;34868;-89
2021/12/13 00:32:28;;;;;;;17.42;9.02;;;;;;;0.67;63.87;99678.69;4361548;32;33763;-90
2021/12/13 00:35:00;;;;;;;19.95;9.10;;;;;;;0.84;63.79;99689.91;4347620;32;34759;-88
2021/12/13 00:37:32;;;;;;;16.40;9.63;;;;;;;1.03;62.68;99684.22;4346383;33;34417;-88
2021/12/13 00:40:02;;;;;;;19.45;10.77;;;;;;;0.92;63.09;99697.22;4347272;32;33896;-89
2021/12/13 00:42:35;;;;;;;17.37;9.50;;;;;;;1.05;62.57;99691.16;4333472;33;33553;-88
2021/12/13 00:45:07;;;;;;;16.17;9.40;;;;;;;1.11;62.17;99690.66;4334023;32;33801;-89
2021/12/13 00:47:36;;;;;;;15.25;9.55;;;;;;;1.12;61.80;99682.19;4359874;32;34128;-89
2021/12/13 00:50:12;;;;;;;18.48;10.15;;;;;;;1.14;62.40;99685.72;4347267;32;33959;-88
2021/12/13 00:52:43;;;;;;;17.52;9.30;;;;;;;1.06;62.47;99690.38;4347548;32;33587;-89
2021/12/13 00:55:26;;;;;;;18.45;9.43;;;;;;;0.73;63.45;99689.25;4350289;32;34005;-89
2021/12/13 00:58:13;;;;;;;18.17;11.02;;;;;;;1.04;62.60;99689.41;4361139;32;33657;-89
2021/12/13 01:00:44;;;;;;;23.73;10.57;;;;;;;1.01;62.75;99691.75;4347599;32;34092;-91
2021/12/13 01:03:27;;;;;;;22.25;9.85;;;;;;;0.58;64.16;99690.91;4347147;32;32038;-89
2021/12/13 01:06:37;;;;;;;16.48;9.77;;;;;;;0.28;64.92;99679.72;4355092;32;34631;-90
2021/12/13 01:09:42;;;;;;;19.52;10.43;;;;;;;0.31;64.91;99683.31;4313562;32;32886;-90
2021/12/13 01:12:14;;;;;;;16.17;8.82;;;;;;;0.41;65.08;99687.31;4347689;32;33740;-89
2021/12/13 01:14:45;;;;;;;16.35;9.52;;;;;;;-0.06;65.92;99681.03;4347402;32;33831;-90
2021/12/13 01:17:37;;;;;;;15.68;8.80;;;;;;;0.10;65.82;99690.50;4361006;32;33588;-89
2021/12/13 01:21:54;;;;;;;16.37;9.20;;;;;;;0.28;65.10;99689.91;4349380;32;34618;-89
2021/12/13 01:23:52;;;;;;;18.87;10.37;;;;;;;0.77;63.43;99688.66;4339666;32;33384;-90
2021/12/13 01:29:00;;;;;;;19.45;9.90;;;;;;;0.50;64.18;99702.31;4347227;32;33958;-89
2021/12/13 01:31:32;;;;;;;18.60;9.93;;;;;;;0.21;65.11;99693.75;4347695;32;33838;-89
2021/12/13 01:34:02;;;;;;;17.77;8.85;;;;;;;0.33;64.79;99685.97;4348364;32;34533;-89
2021/12/13 01:36:42;;;;;;;17.02;9.65;;;;;;;0.34;64.66;99691.19;4347289;32;33059;-89
2021/12/13 01:39:29;;;;;;;15.65;9.38;;;;;;;0.43;64.61;99696.81;4348392;32;35044;-88
2021/12/13 01:42:04;;;;;;;21.12;9.35;;;;;;;0.62;63.76;99703.03;4347289;32;33853;-88
2021/12/13 01:44:37;;;;;;;16.83;9.27;;;;;;;0.57;63.92;99701.88;4335150;32;33919;-89
2021/12/13 01:47:08;;;;;;;16.95;10.00;;;;;;;0.66;63.95;99707.53;4360881;32;33372;-89
2021/12/13 01:49:40;;;;;;;16.52;8.68;;;;;;;1.10;62.19;99705.09;4359987;32;34841;-89
2021/12/13 01:52:20;;;;;;;18.52;9.48;;;;;;;1.08;62.14;99709.22;4338167;32;33910;-90
2021/12/13 01:54:48;;;;;;;19.12;9.73;;;;;;;0.64;63.38;99707.44;4334392;32;33990;-89
2021/12/13 02:00:17;;;;;;;15.18;9.68;;;;;;;0.78;62.91;99713.38;4333495;32;33183;-89
2021/12/13 02:02:50;;;;;;;15.40;9.02;;;;;;;0.63;63.25;99707.34;4340502;32;33870;-90
2021/12/13 02:05:25;;;;;;;16.73;8.73;;;;;;;0.57;63.40;99701.88;4320693;33;34004;-90
2021/12/13 02:08:13;;;;;;;16.08;9.43;;;;;;;0.71;62.77;99706.13;4346755;32;33157;-90
2021/12/13 02:10:54;;;;;;;18.42;10.23;;;;;;;0.90;62.49;99709.00;4347018;32;34594;-89
2021/12/13 02:13:38;;;;;;;24.00;9.80;;;;;;;0.69;62.93;99702.63;4359657;32;33025;-89
2021/12/13 02:18:57;;;;;;;20.17;9.82;;;;;;;1.07;61.86;99697.25;4336364;32;32948;-90
2021/12/13 02:21:31;;;;;;;16.02;8.82;;;;;;;0.82;62.43;99717.00;4346949;32;34743;-89
2021/12/13 02:24:07;;;;;;;14.80;8.45;;;;;;;0.89;62.39;99711.47;4347449;32;33980;-89
2021/12/13 02:26:38;;;;;;;20.35;9.60;;;;;;;0.72;62.75;99715.59;4360037;32;33734;-90
2021/12/13 02:29:17;;;;;;;17.67;9.45;;;;;;;0.87;62.44;99721.59;4334098;32;34000;-89
2021/12/13 02:31:45;;;;;;;15.90;9.23;;;;;;;0.75;62.76;99710.63;4359744;32;33108;-89
2021/12/13 02:34:16;;;;;;;18.08;9.95;;;;;;;1.07;61.98;99719.34;4334399;32;35104;-90
2021/12/13 02:36:54;;;;;;;17.58;9.48;;;;;;;0.73;62.63;99712.22;4360883;32;33722;-90
2021/12/13 02:39:29;;;;;;;18.33;10.40;;;;;;;0.56;62.95;99708.66;4347427;32;34102;-90
2021/12/13 02:41:59;;;;;;;19.02;10.25;;;;;;;0.41;63.76;99711.13;4346331;32;33408;-89
2021/12/13 02:44:45;;;;;;;16.12;9.07;;;;;;;0.51;63.72;99724.47;4359964;32;34160;-91
2021/12/13 02:47:36;;;;;;;19.23;10.20;;;;;;;0.71;63.06;99724.00;4334369;32;33201;-90
2021/12/13 02:50:15;;;;;;;18.98;9.70;;;;;;;0.67;63.18;99722.06;4346813;32;34293;-89
2021/12/13 02:52:43;;;;;;;16.98;9.55;;;;;;;0.48;63.75;99720.94;4346685;32;33852;-89
2021/12/13 02:55:19;;;;;;;20.67;11.50;;;;;;;0.77;62.73;99720.97;4360352;32;34216;-88
2021/12/13 02:57:51;;;;;;;19.00;10.82;;;;;;;0.50;63.69;99717.63;4353608;32;33964;-89
2021/12/13 03:00:49;;;;;;;17.05;10.00;;;;;;;0.48;63.63;99710.72;4360524;32;34387;-90
2021/12/13 03:03:21;;;;;;;19.45;9.32;;;;;;;0.97;61.97;99717.91;4346377;32;33316;-91
2021/12/13 03:05:51;;;;;;;18.02;9.90;;;;;;;0.19;64.09;99715.69;4346709;32;35019;-90
2021/12/13 03:08:48;;;;;;;15.88;9.65;;;;;;;0.18;64.63;99719.91;4346462;32;34326;-89
2021/12/13 03:11:24;;;;;;;19.73;9.15;;;;;;;0.26;64.51;99722.94;4337694;32;33474;-89
2021/12/13 03:13:59;;;;;;;16.50;10.25;;;;;;;0.31;63.89;99711.37;4347194;32;33669;-89
2021/12/13 03:16:37;;;;;;;18.25;10.02;;;;;;;0.95;62.24;99706.75;4334648;32;35278;-89
2021/12/13 03:19:08;;;;;;;19.52;9.85;;;;;;;0.91;62.70;99708.22;4360019;32;33741;-89
2021/12/13 03:22:13;;;;;;;18.00;9.20;;;;;;;0.82;62.82;99707.66;4346701;32;33487;-89
2021/12/13 03:25:07;;;;;;;19.92;10.77;;;;;;;0.80;62.66;99711.81;4354799;32;34681;-90
2021/12/13 03:28:12;;;;;;;17.25;10.00;;;;;;;1.12;61.85;99705.16;4357287;32;34072;-89
2021/12/13 03:30:56;;;;;;;20.88;10.30;;;;;;;0.87;62.28;99715.59;4345466;33;33600;-89
2021/12/13 03:33:44;;;;;;;20.60;10.10;;;;;;;0.95;62.57;99710.19;4344943;32;33695;-88
2021/12/13 03:36:15;;;;;;;18.52;10.35;;;;;;;1.27;61.51;99703.50;4360247;32;34053;-89
2021/12/13 03:38:47;;;;;;;21.98;11.15;;;;;;;1.40;61.10;99700.88;4346267;32;33653;-88
2021/12/13 03:41:21;;;;;;;18.62;10.63;;;;;;;1.43;61.02;99706.13;4354062;32;34168;-89
2021/12/13 03:43:54;;;;;;;22.15;10.95;;;;;;;1.13;61.55;99720.56;4344848;32;34142;-89
2021/12/13 03:46:25;;;;;;;22.50;11.23;;;;;;;1.58;60.45;99721.47;4345982;32;33758;-89
2021/12/13 03:48:54;;;;;;;17.05;9.80;;;;;;;1.04;61.92;99721.72;4346265;32;33791;-90
2021/12/13 03:51:34;;;;;;;20.42;10.65;;;;;;;1.56;60.62;99717.09;4346264;32;34717;-89
2021/12/13 03:54:04;;;;;;;18.00;10.73;;;;;;;1.11;61.65;99721.28;4358762;32;33556;-90
2021/12/13 03:56:36;;;;;;;20.67;10.60;;;;;;;1.13;61.90;99714.59;4359807;32;34666;-89
2021/12/13 03:59:14;;;;;;;19.65;11.07;;;;;;;1.68;60.29;99723.75;4335530;32;34039;-89
2021/12/13 04:01:49;;;;;;;17.67;10.93;;;;;;;1.55;60.72;99726.41;4360958;32;34029;-89
2021/12/13 04:04:27;;;;;;;23.25;12.95;;;;;;;1.29;61.19;99724.00;4345535;32;33704;-90
2021/12/13 04:07:03;;;;;;;21.05;11.52;;;;;;;1.32;61.77;99729.31;4346965;33;34561;-88
2021/12/13 04:09:34;;;;;;;19.80;11.18;;;;;;;0.83;62.60;99731.50;4327936;33;32949;-89
2021/12/13 04:12:05;;;;;;;22.87;12.65;;;;;;;1.05;62.66;99726.03;4309219;33;32419;-89
2021/12/13 04:14:38;;;;;;;21.85;12.18;;;;;;;0.92;63.28;99738.06;4340079;32;34881;-90
2021/12/13 04:17:22;;;;;;;21.73;11.40;;;;;;;1.08;62.94;99742.41;4348285;32;34080;-90
2021/12/13 04:19:57;;;;;;;21.83;12.32;;;;;;;0.89;63.31;99732.78;4361495;32;33965;-89
2021/12/13 04:22:37;;;;;;;22.83;13.60;;;;;;;0.84;63.76;99744.38;4348108;32;33751;-89
2021/12/13 04:25:16;;;;;;;24.17;12.65;;;;;;;0.88;63.48;99748.00;4348492;32;34040;-89
2021/12/13 04:28:19;;;;;;;20.27;13.18;;;;;;;1.16;62.62;99736.06;4361499;32;33912;-88
2021/12/13 04:30:55;;;;;;;22.67;12.05;;;;;;;1.17;62.90;99736.94;4361672;32;34301;-88
2021/12/13 04:33:34;;;;;;;25.37;13.95;;;;;;;0.97;63.26;99741.75;4347720;32;33823;-90
2021/12/13 04:36:15;;;;;;;23.08;13.25;;;;;;;0.66;64.85;99748.38;4346839;32;33207;-89
2021/12/13 04:38:50;;;;;;;25.62;14.48;;;;;;;0.44;65.51;99749.59;4360995;32;34651;-90
2021/12/13 04:41:53;;;;;;;24.33;13.43;;;;;;;1.09;63.43;99748.38;4347902;32;33524;-89
2021/12/13 04:44:37;;;;;;;23.20;13.50;;;;;;;0.56;65.14;99730.72;4347504;32;33742;-88
2021/12/13 04:47:29;;;;;;;26.27;13.57;;;;;;;0.65;65.30;99749.16;4341884;32;34234;-89
2021/12/13 04:50:03;;;;;;;25.55;13.82;;;;;;;0.59;65.51;99736.03;4347762;32;33675;-89
2021/12/13 04:52:33;;;;;;;23.80;14.05;;;;;;;0.51;66.19;99744.88;4347382;32;32703;-90
2021/12/13 04:55:02;;;;;;;28.35;14.20;;;;;;;0.78;65.12;99741.44;4335159;32;33006;-90
2021/12/13 04:57:30;;;;;;;25.25;15.07;;;;;;;1.03;64.19;99738.72;4359709;32;32110;-90
2021/12/13 05:00:06;;;;;;;26.33;13.62;;;;;;;0.88;64.84;99743.78;4347932;32;34631;-91
2021/12/13 05:02:34;;;;;;;26.35;15.00;;;;;;;0.99;64.74;99743.56;4347967;32;34577;-90
2021/12/13 05:05:05;;;;;;;27.02;13.82;;;;;;;0.67;66.05;99751.00;4360642;32;33958;-90
2021/12/13 05:07:35;;;;;;;22.65;12.70;;;;;;;1.01;64.72;99749.63;4358228;32;34253;-90
2021/12/13 05:10:04;;;;;;;27.77;15.80;;;;;;;1.16;64.41;99753.06;4347481;32;34800;-90
2021/12/13 05:12:31;;;;;;;25.50;14.35;;;;;;;1.28;63.96;99758.91;4347824;32;34135;-91
2021/12/13 05:15:04;;;;;;;23.73;13.57;;;;;;;0.32;66.74;99763.25;4354611;32;33943;-90
2021/12/13 05:17:45;;;;;;;28.27;14.60;;;;;;;0.62;66.30;99764.28;4358631;32;34328;-93
2021/12/13 05:20:23;;;;;;;25.70;14.43;;;;;;;0.35;67.02;99763.47;4322855;32;33473;-90
2021/12/13 05:22:58;;;;;;;26.25;15.43;;;;;;;0.77;66.40;99770.31;4359131;32;34922;-90
2021/12/13 05:25:45;;;;;;;29.52;15.68;;;;;;;0.57;67.22;99770.75;4334602;32;33477;-91
2021/12/13 05:28:19;;;;;;;28.83;15.82;;;;;;;1.06;65.61;99778.84;4346735;32;33509;-90
2021/12/13 05:30:57;;;;;;;26.35;15.40;;;;;;;1.12;65.20;99777.53;4343693;32;33560;-89
2021/12/13 05:33:27;;;;;;;26.62;15.90;;;;;;;0.82;66.24;99776.56;4345082;32;33837;-90
2021/12/13 05:35:58;;;;;;;28.73;16.33;;;;;;;0.73;66.50;99779.47;4360144;32;32529;-91
2021/12/13 05:38:31;;;;;;;26.98;15.00;;;;;;;0.43;67.89;99783.56;4346272;32;33677;-92
2021/12/13 05:41:02;;;;;;;27.02;15.68;;;;;;;0.50;67.64;99784.81;4347195;32;34807;-89
2021/12/13 05:43:38;;;;;;;29.33;15.55;;;;;;;0.83;66.89;99786.00;4328773;32;33654;-90
2021/12/13 05:46:10;;;;;;;25.40;15.80;;;;;;;0.99;66.40;99784.41;4357992;32;33839;-91
2021/12/13 05:48:49;;;;;;;29.67;16.50;;;;;;;1.10;65.79;99791.00;4360997;32;34463;-89
2021/12/13 05:51:22;;;;;;;30.40;16.42;;;;;;;1.13;66.20;99789.50;4346360;32;33655;-90
2021/12/13 05:54:21;;;;;;;28.58;16.85;;;;;;;0.83;67.01;99786.00;4347162;32;34823;-91
2021/12/13 05:57:05;;;;;;;35.90;17.77;;;;;;;1.30;65.76;99790.53;4330272;33;32845;-91
2021/12/13 05:59:58;;;;;;;32.72;17.85;;;;;;;1.12;66.59;99800.53;4357209;32;33349;-89
2021/12/13 06:02:39;;;;;;;26.87;15.38;;;;;;;0.63;67.74;99792.44;4356328;32;34716;-88
2021/12/13 06:05:15;;;;;;;29.77;16.65;;;;;;;1.14;66.78;99792.97;4348016;32;34026;-89
2021/12/13 06:07:52;;;;;;;26.52;16.75;;;;;;;1.01;66.76;99793.91;4347232;32;33894;-88
2021/12/13 06:10:21;;;;;;;28.75;16.92;;;;;;;1.36;66.28;99795.13;4347018;32;34399;-87
2021/12/13 06:12:58;;;;;;;34.67;18.33;;;;;;;0.80;67.59;99801.16;4347575;32;34642;-89
2021/12/13 06:15:40;;;;;;;34.88;20.12;;;;;;;1.19;66.77;99797.56;4336524;32;35137;-92
2021/12/13 06:18:16;;;;;;;34.05;19.05;;;;;;;1.29;65.91;99801.56;4348017;32;33580;-92
2021/12/13 06:21:27;;;;;;;30.48;17.95;;;;;;;1.19;66.54;99807.78;4348874;32;33536;-90
2021/12/13 06:23:54;;;;;;;30.65;16.80;;;;;;;1.28;66.63;99811.66;4333248;32;33593;-91
2021/12/13 06:26:27;;;;;;;28.20;16.05;;;;;;;1.42;65.94;99810.81;4348362;32;34316;-90
2021/12/13 06:28:58;;;;;;;31.80;18.33;;;;;;;1.32;66.41;99814.47;4335307;32;32324;-91
2021/12/13 06:31:41;;;;;;;33.55;18.75;;;;;;;1.02;67.58;99812.63;4335389;32;34101;-91
2021/12/13 06:34:12;;;;;;;32.00;18.17;;;;;;;0.82;68.56;99814.88;4347512;32;34579;-92
2021/12/13 06:36:45;;;;;;;32.10;17.08;;;;;;;0.85;68.25;99814.19;4335265;32;33436;-91
2021/12/13 06:39:15;;;;;;;33.25;17.58;;;;;;;0.44;69.59;99825.25;4361155;32;33398;-92
2021/12/13 06:41:50;;;;;;;31.42;17.60;;;;;;;1.08;67.90;99829.22;4347635;32;33746;-91
2021/12/13 06:44:19;;;;;;;28.95;17.75;;;;;;;1.01;67.74;99828.75;4335608;32;33820;-92
2021/12/13 06:47:01;;;;;;;30.52;17.73;;;;;;;0.80;68.64;99829.22;4347994;32;34116;-91
2021/12/13 06:49:35;;;;;;;30.23;18.70;;;;;;;0.85;68.47;99834.59;4362029;32;34723;-91
2021/12/13 06:52:20;;;;;;;33.75;17.87;;;;;;;1.02;68.25;99827.97;4362389;32;34589;-92
2021/12/13 06:54:55;;;;;;;36.55;18.35;;;;;;;1.15;67.71;99831.38;4347758;32;34045;-92
2021/12/13 06:57:29;;;;;;;29.97;17.07;;;;;;;1.28;67.44;99832.97;4361356;32;35037;-92
2021/12/13 07:00:04;;;;;;;32.30;17.58;;;;;;;0.94;68.27;99830.03;4347474;32;31362;-92
2021/12/13 07:02:35;;;;;;;32.13;17.90;;;;;;;1.07;68.39;99831.69;4361178;32;33581;-92
2021/12/13 07:05:20;;;;;;;30.65;19.30;;;;;;;0.87;69.73;99838.12;4361029;32;34219;-92
2021/12/13 07:08:03;;;;;;;32.42;19.12;;;;;;;1.03;68.71;99845.06;4347774;32;34133;-92
2021/12/13 07:10:40;;;;;;;31.40;18.52;;;;;;;1.38;67.53;99830.19;4361573;32;33912;-92
2021/12/13 07:13:23;;;;;;;31.27;18.02;;;;;;;1.56;66.81;99832.97;4361720;32;34098;-92
2021/12/13 07:15:59;;;;;;;31.02;17.70;;;;;;;0.98;69.01;99839.66;4348157;32;33863;-91
2021/12/13 07:18:40;;;;;;;29.37;17.83;;;;;;;1.34;68.04;99837.59;4361210;32;34932;-92
2021/12/13 07:21:11;;;;;;;31.50;19.20;;;;;;;1.19;68.37;99837.53;4361547;32;33421;-91
2021/12/13 07:24:02;;;;;;;30.45;18.48;;;;;;;1.05;69.19;99846.03;4361862;32;34466;-92
2021/12/13 07:26:55;;;;;;;31.42;18.55;;;;;;;1.17;68.88;99847.66;4361500;32;33919;-92
2021/12/13 07:29:47;;;;;;;30.80;18.00;;;;;;;1.05;69.38;99848.59;4361184;32;33272;-93
2021/12/13 07:32:24;;;;;;;30.75;18.35;;;;;;;0.91;70.21;99850.28;4360394;32;34164;-92
2021/12/13 07:35:20;;;;;;;32.97;20.48;;;;;;;1.09;69.54;99846.31;4361096;32;33781;-92
2021/12/13 07:37:50;;;;;;;29.87;17.73;;;;;;;1.18;69.16;99846.00;4361068;32;34568;-90
2021/12/13 07:40:38;;;;;;;33.03;20.02;;;;;;;1.39;68.65;99843.84;4347620;32;34054;-93
2021/12/13 07:43:27;;;;;;;30.17;17.98;;;;;;;0.75;70.91;99853.56;4360734;32;34672;-92
2021/12/13 07:46:17;;;;;;;31.58;18.85;;;;;;;0.97;70.18;99849.00;4335216;32;32013;-93
2021/12/13 07:48:45;;;;;;;32.53;18.62;;;;;;;1.10;69.86;99853.19;4361151;32;33271;-93
2021/12/13 07:51:31;;;;;;;33.78;19.10;;;;;;;1.12;70.00;99860.94;4360550;32;34048;-92
2021/12/13 07:53:58;;;;;;;36.90;20.30;;;;;;;1.44;69.37;99861.22;4360734;32;34912;-92
2021/12/13 07:56:29;;;;;;;33.13;19.40;;;;;;;1.53;68.86;99865.13;4360649;32;34059;-93
2021/12/13 07:59:04;;;;;;;37.80;21.35;;;;;;;1.46;69.04;99862.19;4360925;32;34582;-92
2021/12/13 08:01:36;;;;;;;37.60;20.85;;;;;;;1.51;68.88;99864.13;4347114;32;35670;-90
2021/12/13 08:04:11;;;;;;;35.33;20.62;;;;;;;1.49;69.45;99870.84;4347343;32;34087;-89
2021/12/13 08:06:47;;;;;;;41.67;21.35;;;;;;;1.62;68.88;99875.88;4346494;32;33632;-90
2021/12/13 08:09:19;;;;;;;34.05;20.85;;;;;;;1.46;69.50;99876.63;4360230;32;34757;-90
2021/12/13 08:11:46;;;;;;;33.05;20.12;;;;;;;1.31;69.91;99884.25;4360265;32;34168;-90
2021/12/13 08:14:14;;;;;;;36.63;19.58;;;;;;;1.49;69.45;99868.28;4360665;32;34151;-90
2021/12/13 08:16:45;;;;;;;36.35;21.55;;;;;;;1.74;68.64;99871.47;4347107;32;34313;-90
2021/12/13 08:19:21;;;;;;;34.30;19.77;;;;;;;1.54;69.33;99877.09;4347236;32;33198;-90
2021/12/13 08:21:53;;;;;;;30.90;19.42;;;;;;;1.40;69.89;99889.03;4346404;32;34984;-90
2021/12/13 08:24:31;;;;;;;36.08;21.65;;;;;;;2.07;67.54;99887.91;4346996;32;34249;-91
2021/12/13 08:27:06;;;;;;;34.90;21.37;;;;;;;1.85;68.19;99895.13;4361350;32;33723;-90
2021/12/13 08:29:36;;;;;;;34.28;20.25;;;;;;;2.19;67.16;99887.72;4334758;32;33441;-90
2021/12/13 08:32:14;;;;;;;39.05;20.33;;;;;;;1.61;68.92;99894.56;4334723;32;35126;-90
2021/12/13 08:34:46;;;;;;;36.45;19.50;;;;;;;2.01;67.85;99891.78;4347628;32;34039;-89
2021/12/13 08:37:19;;;;;;;35.13;19.58;;;;;;;1.51;69.70;99892.22;4346801;32;33999;-89
2021/12/13 08:39:56;;;;;;;33.88;19.58;;;;;;;1.70;69.09;99895.09;4347528;32;34215;-90
2021/12/13 08:42:27;;;;;;;31.35;18.33;;;;;;;1.74;68.96;99897.03;4347926;32;34739;-92
2021/12/13 08:45:03;;;;;;;33.65;19.55;;;;;;;2.22;67.25;99900.69;4349450;32;33215;-92
2021/12/13 08:47:52;;;;;;;37.78;22.70;;;;;;;2.23;67.16;99901.56;4350092;32;34476;-93
2021/12/13 08:50:34;;;;;;;40.33;23.60;;;;;;;2.31;67.04;99908.91;4349468;32;34815;-93
2021/12/13 08:53:10;;;;;;;34.70;18.83;;;;;;;2.51;66.21;99906.59;4363266;32;34180;-92
2021/12/13 08:55:41;;;;;;;32.58;19.75;;;;;;;2.16;67.38;99905.47;4349909;32;33680;-91
2021/12/13 08:58:18;;;;;;;31.98;18.15;;;;;;;2.43;66.54;99909.63;4350444;32;33599;-93
2021/12/13 09:00:59;;;;;;;33.17;18.58;;;;;;;1.84;68.48;99909.56;4348712;32;34072;-92
2021/12/13 09:03:34;;;;;;;31.27;19.25;;;;;;;2.30;66.61;99907.13;4348448;32;35020;-92
2021/12/13 09:06:16;;;;;;;34.80;19.48;;;;;;;2.25;66.97;99910.25;4361488;32;34776;-92
2021/12/13 09:08:58;;;;;;;33.50;18.08;;;;;;;2.12;67.39;99906.06;4336180;32;31872;-92
2021/12/13 09:11:31;;;;;;;29.70;17.92;;;;;;;2.48;66.10;99902.19;4348856;32;33421;-93
2021/12/13 09:14:08;;;;;;;29.87;18.73;;;;;;;2.51;65.62;99896.38;4362142;32;34860;-92
2021/12/13 09:17:07;;;;;;;28.85;16.05;;;;;;;2.34;66.22;99896.28;4361665;32;34380;-92
2021/12/13 09:19:44;;;;;;;30.37;16.15;;;;;;;2.62;65.12;99902.97;4360718;32;33805;-92
2021/12/13 09:22:23;;;;;;;24.17;15.90;;;;;;;2.49;65.05;99897.94;4347407;33;33822;-92
2021/12/13 09:24:55;;;;;;;27.92;15.88;;;;;;;2.86;63.58;99896.63;4346862;33;33969;-93
2021/12/13 09:27:28;;;;;;;30.85;16.40;;;;;;;3.00;63.35;99902.53;4359410;32;34096;-93
2021/12/13 09:30:01;;;;;;;24.95;15.90;;;;;;;2.83;63.84;99903.25;4361666;32;33369;-92
2021/12/13 09:32:38;;;;;;;26.40;15.82;;;;;;;2.79;63.88;99889.41;4348005;32;33537;-93
2021/12/13 09:35:24;;;;;;;26.30;16.33;;;;;;;3.19;62.38;99891.59;4361288;32;34270;-94
2021/12/13 09:37:56;;;;;;;25.20;14.85;;;;;;;3.14;62.34;99893.00;4361781;32;33981;-91
2021/12/13 09:40:34;;;;;;;27.10;15.80;;;;;;;3.11;62.78;99892.84;4348171;32;33514;-91
2021/12/13 09:43:03;;;;;;;24.45;15.30;;;;;;;2.99;62.82;99892.16;4347816;32;33736;-93
2021/12/13 09:45:46;;;;;;;27.98;16.12;;;;;;;2.95;63.36;99877.44;4356307;32;174554;-93
2021/12/13 09:48:45;;;;;;;30.12;16.20;;;;;;;3.29;62.35;99883.56;4361415;32;33868;-93
2021/12/13 09:51:21;;;;;;;27.10;15.50;;;;;;;3.45;62.04;99889.50;4344662;32;33578;-93
2021/12/13 09:53:53;;;;;;;30.83;17.52;;;;;;;3.74;61.22;99881.63;4335756;32;33911;-94
2021/12/13 09:56:23;;;;;;;26.08;15.95;;;;;;;3.04;63.38;99881.41;4348053;32;33879;-94
2021/12/13 09:58:59;;;;;;;26.33;16.87;;;;;;;3.20;63.24;99885.66;4348132;32;34052;-93
2021/12/13 10:01:32;;;;;;;39.55;17.42;;;;;;;3.76;61.77;99874.91;4362031;32;34406;-93
2021/12/13 10:04:08;;;;;;;34.08;17.37;;;;;;;3.54;62.41;99875.50;4348133;32;33700;-93
2021/12/13 10:06:40;;;;;;;28.77;17.95;;;;;;;3.78;61.93;99873.28;4347965;32;34266;-93
2021/12/13 10:09:20;;;;;;;31.35;18.35;;;;;;;4.12;60.97;99865.59;4361147;32;34449;-93
2021/12/13 10:11:59;;;;;;;33.47;19.50;;;;;;;3.69;62.32;99872.84;4335712;32;33180;-93
2021/12/13 10:14:32;;;;;;;28.48;18.23;;;;;;;3.52;62.57;99871.94;4347949;32;33877;-93
2021/12/13 10:17:00;;;;;;;33.47;18.40;;;;;;;4.12;61.15;99867.28;4347300;32;33738;-93
2021/12/13 10:19:39;;;;;;;28.60;19.55;;;;;;;3.74;62.06;99868.81;4361531;32;34163;-93
2021/12/13 10:22:08;;;;;;;32.97;18.95;;;;;;;3.55;62.76;99871.25;4347983;32;33111;-93
2021/12/13 10:24:40;;;;;;;30.40;18.58;;;;;;;3.77;61.98;99868.09;4335755;32;33900;-93
2021/12/13 10:27:10;;;;;;;34.20;18.05;;;;;;;3.56;62.57;99871.34;4347666;32;33995;-94
2021/12/13 10:29:42;;;;;;;30.75;18.58;;;;;;;3.72;62.42;99873.00;4348237;32;33774;-94
2021/12/13 10:32:20;;;;;;;28.48;18.90;;;;;;;3.90;61.65;99875.59;4347575;32;34357;-93
2021/12/13 10:34:50;;;;;;;30.55;19.33;;;;;;;3.57;63.10;99864.53;4348002;32;34649;-92
2021/12/13 10:37:25;;;;;;;30.33;18.50;;;;;;;4.09;61.78;99862.00;4361431;32;35043;-92
2021/12/13 10:39:58;;;;;;;32.88;19.30;;;;;;;4.05;61.40;99854.97;4361574;32;34167;-93
2021/12/13 10:42:34;;;;;;;30.70;18.92;;;;;;;3.90;61.45;99863.69;4361423;32;33332;-93
2021/12/13 10:45:07;;;;;;;36.67;19.75;;;;;;;3.89;61.80;99859.34;4347964;32;33826;-93
2021/12/13 10:47:38;;;;;;;27.42;18.00;;;;;;;3.98;61.66;99865.72;4347190;32;34904;-93
2021/12/13 10:50:10;;;;;;;28.90;17.85;;;;;;;4.17;60.84;99855.59;4360942;32;34121;-95
2021/12/13 10:52:42;;;;;;;26.65;17.35;;;;;;;3.86;61.58;99855.72;4347807;32;33495;-93
2021/12/13 10:55:19;;;;;;;24.63;14.18;;;;;;;3.50;62.60;99860.75;4347678;32;33351;-93
2021/12/13 10:57:48;;;;;;;27.95;16.42;;;;;;;3.82;60.55;99852.12;4347895;32;34795;-93
2021/12/13 11:00:22;;;;;;;24.95;15.80;;;;;;;3.87;60.17;99853.25;4347690;32;33891;-93
2021/12/13 11:02:59;;;;;;;29.73;16.17;;;;;;;4.30;59.17;99847.66;4335688;32;33235;-93
2021/12/13 11:05:28;;;;;;;26.25;14.82;;;;;;;4.29;59.26;99839.91;4347111;32;32739;-93
2021/12/13 11:07:57;;;;;;;24.58;14.93;;;;;;;4.12;59.60;99846.78;4347502;32;34434;-94
2021/12/13 11:10:34;;;;;;;26.15;16.20;;;;;;;4.24;59.28;99841.34;4347548;32;33988;-93
2021/12/13 11:13:22;;;;;;;26.73;17.30;;;;;;;4.18;59.59;99835.94;4350304;32;33660;-92
2021/12/13 11:15:54;;;;;;;28.17;17.23;;;;;;;4.28;59.55;99839.03;4347609;32;34383;-92
2021/12/13 11:18:27;;;;;;;31.87;18.50;;;;;;;4.01;60.91;99842.78;4347444;32;34067;-93
2021/12/13 11:21:05;;;;;;;29.23;18.48;;;;;;;4.38;59.74;99850.59;4348084;32;34327;-93
2021/12/13 11:23:33;;;;;;;29.63;19.30;;;;;;;4.06;61.27;99849.06;4335720;32;33712;-93
2021/12/13 11:26:04;;;;;;;30.70;17.67;;;;;;;4.30;60.30;99847.66;4347155;32;33517;-93
2021/12/13 11:28:33;;;;;;;29.75;18.85;;;;;;;4.03;60.66;99847.19;4347866;32;35084;-93
2021/12/13 11:31:08;;;;;;;28.85;18.55;;;;;;;3.86;61.74;99854.06;4360765;32;34928;-93
2021/12/13 11:33:55;;;;;;;32.65;19.75;;;;;;;4.07;61.27;99853.38;4347571;32;33279;-93
2021/12/13 11:36:36;;;;;;;31.62;19.55;;;;;;;4.18;60.79;99847.06;4360506;32;34562;-93
2021/12/13 11:39:28;;;;;;;30.95;19.33;;;;;;;4.23;61.05;99847.28;4335216;32;33946;-93
2021/12/13 11:42:21;;;;;;;33.88;19.33;;;;;;;3.86;61.65;99851.50;4346967;32;32967;-93
2021/12/13 11:45:20;;;;;;;33.72;19.98;;;;;;;3.90;61.72;99838.03;4347096;32;34404;-93
2021/12/13 11:48:12;;;;;;;32.55;19.00;;;;;;;3.82;61.89;99852.12;4346364;32;34667;-92
2021/12/13 11:51:01;;;;;;;32.08;20.30;;;;;;;3.89;62.30;99843.94;4347035;32;32791;-93
2021/12/13 11:54:03;;;;;;;32.17;18.58;;;;;;;3.97;62.39;99846.88;4360411;32;35144;-91
2021/12/13 11:56:55;;;;;;;30.85;19.58;;;;;;;3.88;61.99;99833.63;4360357;32;33653;-91
2021/12/13 11:59:28;;;;;;;31.42;20.40;;;;;;;3.67;63.12;99841.09;4360566;32;33823;-90
2021/12/13 12:02:06;;;;;;;31.12;19.77;;;;;;;4.27;61.62;99839.81;4360379;32;34834;-90
2021/12/13 12:05:04;;;;;;;30.58;18.85;;;;;;;4.18;61.65;99834.25;4360439;32;33604;-89
2021/12/13 12:07:39;;;;;;;32.20;18.27;;;;;;;3.93;62.99;99827.00;4346740;32;34521;-90
2021/12/13 12:10:12;;;;;;;32.53;19.00;;;;;;;5.68;57.79;99829.94;4359821;32;34695;-91
2021/12/13 12:12:56;;;;;;;30.23;17.40;;;;;;;6.58;55.11;99815.66;4346461;32;32794;-90
2021/12/13 12:15:25;;;;;;;26.23;17.45;;;;;;;6.90;54.03;99816.03;4346318;32;33998;-91
2021/12/13 12:17:55;;;;;;;29.35;17.83;;;;;;;7.41;51.76;99817.03;4346890;32;34466;-90
2021/12/13 12:20:37;;;;;;;25.80;17.75;;;;;;;7.07;52.64;99822.66;4348483;32;33290;-90
2021/12/13 12:23:08;;;;;;;29.10;17.37;;;;;;;6.68;53.49;99822.94;4361909;32;33746;-91